createdAt,value
2017-05-12T13:19:38.112Z,9.64
2017-05-12T13:22:06.479Z,9.20
2017-05-12T13:24:34.798Z,10.00
2017-05-12T13:27:03.856Z,9.10
2017-05-12T13:29:32.186Z,11.10
2017-05-12T13:32:00.499Z,11.10
2017-05-12T13:34:28.810Z,9.84
2017-05-12T13:36:57.123Z,10.10
2017-05-12T13:39:25.441Z,10.32
2017-05-12T13:41:53.847Z,10.84
2017-05-12T13:44:22.163Z,10.24
2017-05-12T13:46:50.494Z,10.82
2017-05-12T13:49:18.821Z,10.40
2017-05-12T13:51:47.151Z,10.12
2017-05-12T13:54:15.508Z,10.24
2017-05-12T13:56:43.840Z,10.74
2017-05-12T13:59:12.897Z,10.04
2017-05-12T14:01:41.210Z,11.40
2017-05-12T14:04:10.262Z,10.82
2017-05-12T14:06:38.571Z,11.48
2017-05-12T14:09:06.936Z,10.22
2017-05-12T14:11:35.314Z,10.30
2017-05-12T14:14:03.618Z,9.90
2017-05-12T14:16:32.685Z,9.90
2017-05-12T14:19:02.030Z,10.22
2017-05-12T14:21:30.382Z,11.02
2017-05-12T14:23:58.723Z,9.84
2017-05-12T14:26:27.066Z,9.74
2017-05-12T14:28:55.384Z,9.34
2017-05-12T14:31:23.695Z,9.56
2017-05-12T14:33:52.062Z,9.76
2017-05-12T14:36:20.443Z,9.18
2017-05-12T14:38:48.754Z,9.14
2017-05-12T14:41:17.823Z,8.80
2017-05-12T14:43:46.128Z,8.62
2017-05-12T14:46:15.183Z,10.00
2017-05-12T14:48:43.582Z,8.06
2017-05-12T14:51:11.890Z,8.68
2017-05-12T14:53:40.334Z,8.88
2017-05-12T14:56:08.707Z,8.42
2017-05-12T14:58:37.087Z,9.62
2017-05-12T15:01:05.401Z,9.14
2017-05-12T15:03:34.458Z,7.52
2017-05-12T15:06:02.847Z,8.28
2017-05-12T15:08:31.232Z,6.92
2017-05-12T15:10:59.539Z,7.34
2017-05-12T15:13:28.608Z,7.16
2017-05-12T15:15:56.927Z,7.36
2017-05-12T15:18:25.281Z,8.32
2017-05-12T15:20:54.345Z,8.10
2017-05-12T15:23:22.658Z,7.10
2017-05-12T15:25:51.731Z,6.82
2017-05-12T15:28:20.106Z,7.16
2017-05-12T15:30:48.494Z,6.42
2017-05-12T15:33:16.812Z,7.48
2017-05-12T15:35:45.162Z,7.36
2017-05-12T15:38:14.251Z,9.12
2017-05-12T15:40:42.562Z,8.54
2017-05-12T15:43:10.894Z,8.76
2017-05-12T15:45:39.221Z,9.66
2017-05-12T15:48:07.530Z,8.58
2017-05-12T15:50:35.838Z,10.42
2017-05-12T15:53:04.216Z,10.38
2017-05-12T15:55:32.586Z,9.80
2017-05-12T15:58:00.894Z,9.90
2017-05-12T16:00:29.966Z,10.72
2017-05-12T16:02:58.362Z,10.02
2017-05-12T16:05:26.831Z,10.08
2017-05-12T16:07:55.218Z,10.66
2017-05-12T16:10:23.535Z,10.44
2017-05-12T16:12:51.843Z,10.02
2017-05-12T16:15:20.152Z,11.20
2017-05-12T16:17:48.484Z,10.86
2017-05-12T16:20:16.789Z,10.84
2017-05-12T16:22:45.099Z,11.30
2017-05-12T16:25:13.422Z,12.02
2017-05-12T16:27:41.765Z,12.20
2017-05-12T16:30:10.827Z,11.58
2017-05-12T16:32:39.180Z,11.92
2017-05-12T16:35:07.498Z,13.32
2017-05-12T16:37:35.878Z,12.46
2017-05-12T16:40:04.506Z,13.32
2017-05-12T16:42:32.847Z,13.12
2017-05-12T16:45:01.149Z,12.64
2017-05-12T16:47:30.222Z,13.64
2017-05-12T16:49:58.596Z,13.28
2017-05-12T16:52:26.910Z,12.64
2017-05-12T16:54:55.954Z,10.82
2017-05-12T16:57:24.267Z,11.00
2017-05-12T16:59:52.622Z,11.62
2017-05-12T17:02:21.026Z,10.26
2017-05-12T17:04:50.203Z,11.08
2017-05-12T17:07:18.582Z,11.42
2017-05-12T17:09:46.968Z,11.24
2017-05-12T17:12:15.287Z,10.80
2017-05-12T17:14:43.598Z,10.92
2017-05-12T17:17:12.008Z,12.16
2017-05-12T17:19:40.665Z,11.12
2017-05-12T17:22:08.971Z,9.44
2017-05-12T17:24:37.344Z,10.58
2017-05-12T17:27:05.724Z,11.66
2017-05-12T17:29:34.194Z,10.26
2017-05-12T17:32:02.506Z,10.20
2017-05-12T17:34:31.567Z,9.22
2017-05-12T17:36:59.949Z,6.44
2017-05-12T17:39:28.355Z,6.60
2017-05-12T17:41:57.420Z,6.20
2017-05-12T17:44:25.810Z,5.90
2017-05-12T17:46:54.240Z,6.14
2017-05-12T17:49:23.330Z,6.26
2017-05-12T17:51:52.375Z,5.60
2017-05-12T17:54:20.785Z,6.02
2017-05-12T17:56:49.098Z,6.42
2017-05-12T17:59:17.405Z,6.28
2017-05-12T18:01:45.715Z,7.00
2017-05-12T18:04:14.096Z,6.68
2017-05-12T18:06:42.407Z,6.44
2017-05-12T18:09:10.719Z,6.18
2017-05-12T18:11:39.126Z,6.72
2017-05-12T18:14:07.529Z,6.22
2017-05-12T18:16:36.590Z,6.68
2017-05-12T18:19:04.989Z,6.74
2017-05-12T18:21:33.291Z,7.04
2017-05-12T18:24:02.350Z,6.78
2017-05-12T18:26:30.742Z,6.88
2017-05-12T18:28:59.115Z,6.56
2017-05-12T18:31:27.422Z,6.84
2017-05-12T18:33:56.483Z,6.28
2017-05-12T18:36:24.784Z,6.46
2017-05-12T18:38:53.103Z,7.20
2017-05-12T18:41:21.423Z,6.48
2017-05-12T18:43:49.810Z,6.76
2017-05-12T18:46:18.122Z,6.88
2017-05-12T18:48:47.282Z,6.10
2017-05-12T18:51:15.586Z,6.08
2017-05-12T18:53:44.645Z,6.10
2017-05-12T18:56:12.958Z,6.12
2017-05-12T18:58:42.023Z,6.52
2017-05-12T19:01:10.414Z,6.38
2017-05-12T19:03:38.712Z,6.68
2017-05-12T19:06:07.020Z,6.12
2017-05-12T19:08:35.350Z,6.76
2017-05-12T19:11:03.651Z,6.84
2017-05-12T19:13:32.702Z,7.02
2017-05-12T19:16:01.035Z,6.40
2017-05-12T19:18:30.088Z,5.98
2017-05-12T19:20:58.488Z,6.38
2017-05-12T19:23:26.807Z,6.12
2017-05-12T19:25:55.120Z,6.60
2017-05-12T19:28:23.426Z,6.18
2017-05-12T19:30:51.734Z,7.86
2017-05-12T19:33:20.046Z,8.72
2017-05-12T19:35:48.351Z,7.80
2017-05-12T19:38:16.734Z,7.70
2017-05-12T19:40:45.032Z,7.88
2017-05-12T19:43:14.090Z,7.54
2017-05-12T19:45:42.394Z,7.92
2017-05-12T19:48:10.769Z,7.96
2017-05-12T19:50:39.134Z,8.20
2017-05-12T19:53:07.448Z,8.42
2017-05-12T19:58:28.206Z,10.22
2017-05-12T20:00:56.541Z,9.74
2017-05-12T20:03:25.618Z,10.24
2017-05-12T20:05:54.015Z,9.80
2017-05-12T20:08:22.330Z,11.28
2017-05-12T20:10:50.638Z,13.60
2017-05-12T20:13:18.947Z,11.26
2017-05-12T20:15:47.254Z,11.74
2017-05-12T20:18:15.603Z,11.18
2017-05-12T20:20:44.000Z,13.52
2017-05-12T20:23:13.055Z,13.42
2017-05-12T20:25:41.451Z,14.90
2017-05-12T20:28:09.762Z,12.38
2017-05-12T20:30:38.098Z,14.66
2017-05-12T20:33:07.827Z,12.84
2017-05-12T20:35:36.149Z,14.22
2017-05-12T20:38:04.475Z,14.60
2017-05-12T20:40:32.799Z,15.42
2017-05-12T20:43:01.160Z,14.74
2017-05-12T20:45:30.228Z,14.62
2017-05-12T20:47:58.562Z,14.28
2017-05-12T20:50:26.871Z,14.62
2017-05-12T20:52:55.183Z,14.94
2017-05-12T20:55:23.495Z,16.90
2017-05-12T20:57:51.863Z,15.14
2017-05-12T21:00:20.180Z,15.32
2017-05-12T21:02:48.532Z,14.88
2017-05-12T21:05:16.864Z,16.04
2017-05-12T21:07:45.306Z,15.36
2017-05-12T21:10:13.618Z,16.94
2017-05-12T21:12:41.935Z,16.34
2017-05-12T21:15:10.288Z,16.40
2017-05-12T21:17:38.604Z,16.20
2017-05-12T21:20:06.942Z,16.94
2017-05-12T21:22:35.320Z,17.54
2017-05-12T21:25:03.698Z,15.94
2017-05-12T21:27:32.012Z,18.56
2017-05-12T21:30:00.356Z,17.76
2017-05-12T21:32:28.744Z,16.76
2017-05-12T21:34:57.068Z,18.16
2017-05-12T21:37:25.376Z,18.22
2017-05-12T21:39:53.685Z,18.10
2017-05-12T21:42:22.000Z,17.42
2017-05-12T21:44:50.304Z,19.20
2017-05-12T21:47:18.707Z,17.94
2017-05-12T21:49:47.086Z,17.12
2017-05-12T21:52:15.408Z,19.32
2017-05-12T21:54:43.738Z,18.00
2017-05-12T21:57:12.139Z,16.98
2017-05-12T21:59:41.227Z,18.66
2017-05-12T22:02:09.540Z,18.02
2017-05-12T22:04:37.901Z,17.22
2017-05-12T22:07:06.958Z,16.62
2017-05-12T22:09:35.284Z,17.78
2017-05-12T22:12:04.355Z,17.12
2017-05-12T22:14:32.735Z,17.42
2017-05-12T22:17:01.119Z,17.54
2017-05-12T22:19:29.490Z,18.12
2017-05-12T22:21:57.871Z,19.00
2017-05-12T22:24:26.254Z,17.92
2017-05-12T22:26:54.578Z,17.32
2017-05-12T22:29:22.883Z,18.08
2017-05-12T22:31:51.288Z,16.48
2017-05-12T22:34:19.666Z,17.80
2017-05-12T22:36:47.989Z,18.14
2017-05-12T22:39:16.408Z,16.62
2017-05-12T22:41:44.799Z,16.58
2017-05-12T22:44:13.258Z,17.64
2017-05-12T22:46:41.599Z,17.04
2017-05-12T22:49:10.658Z,17.78
2017-05-12T22:51:39.047Z,18.06
2017-05-12T22:54:07.359Z,16.50
2017-05-12T22:56:35.739Z,16.84
2017-05-12T22:59:04.134Z,17.98
2017-05-12T23:01:32.442Z,16.84
2017-05-12T23:04:00.764Z,15.64
2017-05-12T23:06:29.834Z,16.06
2017-05-12T23:08:58.205Z,15.84
2017-05-12T23:11:26.604Z,17.36
2017-05-12T23:13:54.974Z,17.96
2017-05-12T23:16:23.291Z,19.38
2017-05-12T23:18:51.609Z,17.82
2017-05-12T23:21:19.920Z,17.82
2017-05-12T23:23:48.222Z,18.54
2017-05-12T23:26:17.279Z,17.20
2017-05-12T23:28:45.600Z,19.18
2017-05-12T23:31:14.009Z,19.54
2017-05-12T23:33:42.342Z,17.66
2017-05-12T23:36:11.418Z,18.26
2017-05-12T23:38:39.730Z,18.92
2017-05-12T23:41:08.085Z,20.28
2017-05-12T23:43:36.458Z,20.48
2017-05-12T23:46:04.778Z,18.48
2017-05-12T23:48:33.100Z,19.70
2017-05-12T23:51:01.495Z,18.76
2017-05-12T23:53:29.882Z,20.32
2017-05-12T23:55:58.194Z,17.92
2017-05-12T23:58:26.502Z,19.70
